sensor_id;sensor_type;location;lat;lon;timestamp;temperature;humidity
64549;DHT22;49838;51.798;10.954;2023-05-07T00:00:03;16.20;42.90
64549;DHT22;49838;51.798;10.954;2023-05-07T00:02:35;16.30;43.40
64549;DHT22;49838;51.798;10.954;2023-05-07T00:05:03;16.20;43.40
64549;DHT22;49838;51.798;10.954;2023-05-07T00:07:31;16.20;42.90
64549;DHT22;49838;51.798;10.954;2023-05-07T00:09:58;16.20;43.20
64549;DHT22;49838;51.798;10.954;2023-05-07T00:12:25;16.20;43.00
64549;DHT22;49838;51.798;10.954;2023-05-07T00:14:53;16.20;43.20
64549;DHT22;49838;51.798;10.954;2023-05-07T00:17:20;16.10;43.20
64549;DHT22;49838;51.798;10.954;2023-05-07T00:19:48;16.00;42.90
64549;DHT22;49838;51.798;10.954;2023-05-07T00:22:16;16.00;43.20
64549;DHT22;49838;51.798;10.954;2023-05-07T00:24:43;16.00;43.10
64549;DHT22;49838;51.798;10.954;2023-05-07T00:27:10;16.00;43.30
64549;DHT22;49838;51.798;10.954;2023-05-07T00:29:37;16.10;43.60
64549;DHT22;49838;51.798;10.954;2023-05-07T00:32:05;16.10;43.50
64549;DHT22;49838;51.798;10.954;2023-05-07T00:34:32;16.00;43.60
64549;DHT22;49838;51.798;10.954;2023-05-07T00:37:01;15.90;43.10
64549;DHT22;49838;51.798;10.954;2023-05-07T00:39:28;15.90;43.20
64549;DHT22;49838;51.798;10.954;2023-05-07T00:41:56;15.90;43.20
64549;DHT22;49838;51.798;10.954;2023-05-07T00:44:23;15.90;43.10
64549;DHT22;49838;51.798;10.954;2023-05-07T00:46:50;15.90;43.30
64549;DHT22;49838;51.798;10.954;2023-05-07T00:49:18;16.00;43.30
64549;DHT22;49838;51.798;10.954;2023-05-07T00:51:46;15.90;42.60
64549;DHT22;49838;51.798;10.954;2023-05-07T00:54:15;15.90;42.40
64549;DHT22;49838;51.798;10.954;2023-05-07T00:56:42;15.90;42.40
64549;DHT22;49838;51.798;10.954;2023-05-07T00:59:10;15.90;42.40
64549;DHT22;49838;51.798;10.954;2023-05-07T01:01:38;16.00;42.70
64549;DHT22;49838;51.798;10.954;2023-05-07T01:04:05;16.10;43.00
64549;DHT22;49838;51.798;10.954;2023-05-07T01:06:32;16.00;42.90
64549;DHT22;49838;51.798;10.954;2023-05-07T01:09:00;15.90;42.60
64549;DHT22;49838;51.798;10.954;2023-05-07T01:11:31;15.90;42.30
64549;DHT22;49838;51.798;10.954;2023-05-07T01:13:59;16.00;42.70
64549;DHT22;49838;51.798;10.954;2023-05-07T01:16:26;16.00;42.70
64549;DHT22;49838;51.798;10.954;2023-05-07T01:18:54;16.00;42.70
64549;DHT22;49838;51.798;10.954;2023-05-07T01:21:22;15.90;42.50
64549;DHT22;49838;51.798;10.954;2023-05-07T01:23:54;16.00;42.80
64549;DHT22;49838;51.798;10.954;2023-05-07T01:26:22;15.90;42.40
64549;DHT22;49838;51.798;10.954;2023-05-07T01:28:49;16.00;42.70
64549;DHT22;49838;51.798;10.954;2023-05-07T01:31:17;16.00;42.50
64549;DHT22;49838;51.798;10.954;2023-05-07T01:33:44;16.00;42.50
64549;DHT22;49838;51.798;10.954;2023-05-07T01:36:15;16.00;42.90
64549;DHT22;49838;51.798;10.954;2023-05-07T01:38:45;15.90;42.80
64549;DHT22;49838;51.798;10.954;2023-05-07T01:41:14;16.00;42.90
64549;DHT22;49838;51.798;10.954;2023-05-07T01:43:42;15.90;42.80
64549;DHT22;49838;51.798;10.954;2023-05-07T01:46:09;15.90;42.70
64549;DHT22;49838;51.798;10.954;2023-05-07T01:48:37;16.00;43.10
64549;DHT22;49838;51.798;10.954;2023-05-07T01:51:05;15.90;42.80
64549;DHT22;49838;51.798;10.954;2023-05-07T01:53:35;15.90;42.60
64549;DHT22;49838;51.798;10.954;2023-05-07T01:56:03;15.90;42.50
64549;DHT22;49838;51.798;10.954;2023-05-07T01:58:32;16.00;42.70
64549;DHT22;49838;51.798;10.954;2023-05-07T02:00:59;16.00;42.70
64549;DHT22;49838;51.798;10.954;2023-05-07T02:03:26;16.00;43.20
64549;DHT22;49838;51.798;10.954;2023-05-07T02:05:54;15.90;42.90
64549;DHT22;49838;51.798;10.954;2023-05-07T02:08:21;15.90;42.90
64549;DHT22;49838;51.798;10.954;2023-05-07T02:10:48;15.90;42.60
64549;DHT22;49838;51.798;10.954;2023-05-07T02:13:15;15.80;42.50
64549;DHT22;49838;51.798;10.954;2023-05-07T02:15:44;15.90;42.90
64549;DHT22;49838;51.798;10.954;2023-05-07T02:18:15;15.90;43.00
64549;DHT22;49838;51.798;10.954;2023-05-07T02:20:43;15.90;43.20
64549;DHT22;49838;51.798;10.954;2023-05-07T02:23:10;15.80;43.00
64549;DHT22;49838;51.798;10.954;2023-05-07T02:25:38;15.80;42.70
64549;DHT22;49838;51.798;10.954;2023-05-07T02:28:05;15.80;42.90
64549;DHT22;49838;51.798;10.954;2023-05-07T02:30:32;15.90;42.90
64549;DHT22;49838;51.798;10.954;2023-05-07T02:33:01;15.80;43.00
64549;DHT22;49838;51.798;10.954;2023-05-07T02:35:28;15.80;42.80
64549;DHT22;49838;51.798;10.954;2023-05-07T02:37:56;15.70;43.10
64549;DHT22;49838;51.798;10.954;2023-05-07T02:40:23;15.70;43.00
64549;DHT22;49838;51.798;10.954;2023-05-07T02:42:50;15.80;44.20
64549;DHT22;49838;51.798;10.954;2023-05-07T02:45:18;15.70;43.60
64549;DHT22;49838;51.798;10.954;2023-05-07T02:47:45;15.70;43.80
64549;DHT22;49838;51.798;10.954;2023-05-07T02:50:14;15.60;43.80
64549;DHT22;49838;51.798;10.954;2023-05-07T02:52:41;15.60;43.70
64549;DHT22;49838;51.798;10.954;2023-05-07T02:55:09;15.60;43.80
64549;DHT22;49838;51.798;10.954;2023-05-07T02:57:36;15.60;44.50
64549;DHT22;49838;51.798;10.954;2023-05-07T03:00:10;15.60;44.30
64549;DHT22;49838;51.798;10.954;2023-05-07T03:02:38;15.50;44.20
64549;DHT22;49838;51.798;10.954;2023-05-07T03:05:06;15.40;44.10
64549;DHT22;49838;51.798;10.954;2023-05-07T03:07:35;15.40;44.00
64549;DHT22;49838;51.798;10.954;2023-05-07T03:10:03;15.40;44.40
64549;DHT22;49838;51.798;10.954;2023-05-07T03:12:31;15.30;44.30
64549;DHT22;49838;51.798;10.954;2023-05-07T03:14:58;15.30;44.30
64549;DHT22;49838;51.798;10.954;2023-05-07T03:17:25;15.30;44.30
64549;DHT22;49838;51.798;10.954;2023-05-07T03:19:52;15.30;44.10
64549;DHT22;49838;51.798;10.954;2023-05-07T03:22:19;15.30;43.80
64549;DHT22;49838;51.798;10.954;2023-05-07T03:24:48;15.20;43.60
64549;DHT22;49838;51.798;10.954;2023-05-07T03:27:16;15.20;43.40
64549;DHT22;49838;51.798;10.954;2023-05-07T03:29:43;15.30;43.60
64549;DHT22;49838;51.798;10.954;2023-05-07T03:32:10;15.30;43.40
64549;DHT22;49838;51.798;10.954;2023-05-07T03:34:38;15.30;44.10
64549;DHT22;49838;51.798;10.954;2023-05-07T03:37:05;15.30;43.20
64549;DHT22;49838;51.798;10.954;2023-05-07T03:39:32;15.30;43.10
64549;DHT22;49838;51.798;10.954;2023-05-07T03:42:01;15.30;43.40
64549;DHT22;49838;51.798;10.954;2023-05-07T03:44:29;15.30;43.30
64549;DHT22;49838;51.798;10.954;2023-05-07T03:46:56;15.30;43.50
64549;DHT22;49838;51.798;10.954;2023-05-07T03:49:23;15.30;43.70
64549;DHT22;49838;51.798;10.954;2023-05-07T03:51:51;15.30;43.40
64549;DHT22;49838;51.798;10.954;2023-05-07T03:54:18;15.20;43.50
64549;DHT22;49838;51.798;10.954;2023-05-07T03:56:45;15.30;44.10
64549;DHT22;49838;51.798;10.954;2023-05-07T03:59:14;15.30;43.80
64549;DHT22;49838;51.798;10.954;2023-05-07T04:01:41;15.30;43.50
64549;DHT22;49838;51.798;10.954;2023-05-07T04:04:08;15.30;43.90
64549;DHT22;49838;51.798;10.954;2023-05-07T04:06:36;15.30;44.00
64549;DHT22;49838;51.798;10.954;2023-05-07T04:09:03;15.20;43.50
64549;DHT22;49838;51.798;10.954;2023-05-07T04:11:30;15.20;43.50
64549;DHT22;49838;51.798;10.954;2023-05-07T04:13:57;15.20;43.30
64549;DHT22;49838;51.798;10.954;2023-05-07T04:16:26;15.30;43.40
64549;DHT22;49838;51.798;10.954;2023-05-07T04:18:53;15.30;43.80
64549;DHT22;49838;51.798;10.954;2023-05-07T04:21:20;15.30;43.50
64549;DHT22;49838;51.798;10.954;2023-05-07T04:23:48;15.20;43.30
64549;DHT22;49838;51.798;10.954;2023-05-07T04:26:15;15.30;43.50
64549;DHT22;49838;51.798;10.954;2023-05-07T04:28:43;15.30;43.40
64549;DHT22;49838;51.798;10.954;2023-05-07T04:31:10;15.30;43.80
64549;DHT22;49838;51.798;10.954;2023-05-07T04:33:39;15.30;43.40
64549;DHT22;49838;51.798;10.954;2023-05-07T04:36:06;15.30;43.30
64549;DHT22;49838;51.798;10.954;2023-05-07T04:38:34;15.30;43.40
64549;DHT22;49838;51.798;10.954;2023-05-07T04:41:02;15.40;43.60
64549;DHT22;49838;51.798;10.954;2023-05-07T04:43:31;15.30;43.50
64549;DHT22;49838;51.798;10.954;2023-05-07T04:45:58;15.30;43.40
64549;DHT22;49838;51.798;10.954;2023-05-07T04:48:25;15.40;43.60
64549;DHT22;49838;51.798;10.954;2023-05-07T04:50:54;15.40;43.60
64549;DHT22;49838;51.798;10.954;2023-05-07T04:53:21;15.40;43.50
64549;DHT22;49838;51.798;10.954;2023-05-07T04:55:49;15.40;43.50
64549;DHT22;49838;51.798;10.954;2023-05-07T04:58:22;15.50;43.70
64549;DHT22;49838;51.798;10.954;2023-05-07T05:00:49;15.50;43.40
64549;DHT22;49838;51.798;10.954;2023-05-07T05:03:16;15.40;43.00
64549;DHT22;49838;51.798;10.954;2023-05-07T05:05:44;15.50;43.10
64549;DHT22;49838;51.798;10.954;2023-05-07T05:08:12;15.50;43.00
64549;DHT22;49838;51.798;10.954;2023-05-07T05:10:40;15.60;43.00
64549;DHT22;49838;51.798;10.954;2023-05-07T05:13:09;15.60;42.80
64549;DHT22;49838;51.798;10.954;2023-05-07T05:15:38;15.70;43.30
64549;DHT22;49838;51.798;10.954;2023-05-07T05:18:05;15.70;43.00
64549;DHT22;49838;51.798;10.954;2023-05-07T05:20:33;15.70;42.70
64549;DHT22;49838;51.798;10.954;2023-05-07T05:23:00;15.80;42.90
64549;DHT22;49838;51.798;10.954;2023-05-07T05:25:29;15.90;42.90
64549;DHT22;49838;51.798;10.954;2023-05-07T05:27:56;15.90;43.10
64549;DHT22;49838;51.798;10.954;2023-05-07T05:30:24;16.00;42.80
64549;DHT22;49838;51.798;10.954;2023-05-07T05:32:52;16.00;42.90
64549;DHT22;49838;51.798;10.954;2023-05-07T05:35:19;15.90;42.90
64549;DHT22;49838;51.798;10.954;2023-05-07T05:37:46;16.00;42.90
64549;DHT22;49838;51.798;10.954;2023-05-07T05:40:14;16.00;42.80
64549;DHT22;49838;51.798;10.954;2023-05-07T05:42:43;16.10;42.80
64549;DHT22;49838;51.798;10.954;2023-05-07T05:45:10;16.10;42.80
64549;DHT22;49838;51.798;10.954;2023-05-07T05:47:37;16.10;42.90
64549;DHT22;49838;51.798;10.954;2023-05-07T05:50:05;16.20;42.90
64549;DHT22;49838;51.798;10.954;2023-05-07T05:52:36;16.10;43.20
64549;DHT22;49838;51.798;10.954;2023-05-07T05:55:03;16.10;42.90
64549;DHT22;49838;51.798;10.954;2023-05-07T05:57:31;16.10;43.10
64549;DHT22;49838;51.798;10.954;2023-05-07T06:00:00;16.10;43.10
64549;DHT22;49838;51.798;10.954;2023-05-07T06:02:28;16.10;43.10
64549;DHT22;49838;51.798;10.954;2023-05-07T06:04:55;16.20;42.80
64549;DHT22;49838;51.798;10.954;2023-05-07T06:07:23;16.20;42.90
64549;DHT22;49838;51.798;10.954;2023-05-07T06:09:50;16.20;43.20
64549;DHT22;49838;51.798;10.954;2023-05-07T06:12:17;16.20;43.10
64549;DHT22;49838;51.798;10.954;2023-05-07T06:14:44;16.20;43.20
64549;DHT22;49838;51.798;10.954;2023-05-07T06:17:13;16.10;42.70
64549;DHT22;49838;51.798;10.954;2023-05-07T06:19:40;16.10;42.90
64549;DHT22;49838;51.798;10.954;2023-05-07T06:22:08;16.20;43.20
64549;DHT22;49838;51.798;10.954;2023-05-07T06:24:35;16.30;43.30
64549;DHT22;49838;51.798;10.954;2023-05-07T06:27:03;16.30;43.00
64549;DHT22;49838;51.798;10.954;2023-05-07T06:29:30;16.30;42.80
64549;DHT22;49838;51.798;10.954;2023-05-07T06:32:05;16.40;42.90
64549;DHT22;49838;51.798;10.954;2023-05-07T06:34:35;16.50;43.10
64549;DHT22;49838;51.798;10.954;2023-05-07T06:37:02;16.50;43.10
64549;DHT22;49838;51.798;10.954;2023-05-07T06:39:29;16.50;43.20
64549;DHT22;49838;51.798;10.954;2023-05-07T06:41:57;16.50;42.80
64549;DHT22;49838;51.798;10.954;2023-05-07T06:44:24;16.60;43.10
64549;DHT22;49838;51.798;10.954;2023-05-07T06:46:52;16.60;43.10
64549;DHT22;49838;51.798;10.954;2023-05-07T06:49:19;16.70;43.20
64549;DHT22;49838;51.798;10.954;2023-05-07T06:51:48;16.70;42.90
64549;DHT22;49838;51.798;10.954;2023-05-07T06:54:16;16.70;43.00
64549;DHT22;49838;51.798;10.954;2023-05-07T06:56:44;16.80;42.70
64549;DHT22;49838;51.798;10.954;2023-05-07T06:59:11;16.80;42.90
64549;DHT22;49838;51.798;10.954;2023-05-07T07:01:38;16.80;43.00
64549;DHT22;49838;51.798;10.954;2023-05-07T07:04:06;16.80;42.80
64549;DHT22;49838;51.798;10.954;2023-05-07T07:06:33;16.80;42.90
64549;DHT22;49838;51.798;10.954;2023-05-07T07:09:02;16.80;43.10
64549;DHT22;49838;51.798;10.954;2023-05-07T07:11:29;16.80;43.30
64549;DHT22;49838;51.798;10.954;2023-05-07T07:13:56;16.70;43.10
64549;DHT22;49838;51.798;10.954;2023-05-07T07:16:24;16.70;43.50
64549;DHT22;49838;51.798;10.954;2023-05-07T07:18:52;16.70;43.20
64549;DHT22;49838;51.798;10.954;2023-05-07T07:21:19;16.80;43.00
64549;DHT22;49838;51.798;10.954;2023-05-07T07:23:46;16.90;43.10
64549;DHT22;49838;51.798;10.954;2023-05-07T07:26:15;17.00;43.00
64549;DHT22;49838;51.798;10.954;2023-05-07T07:28:43;17.00;43.10
64549;DHT22;49838;51.798;10.954;2023-05-07T07:31:11;17.00;43.00
64549;DHT22;49838;51.798;10.954;2023-05-07T07:33:38;17.10;43.00
64549;DHT22;49838;51.798;10.954;2023-05-07T07:36:06;17.00;42.60
64549;DHT22;49838;51.798;10.954;2023-05-07T07:38:33;17.10;42.90
64549;DHT22;49838;51.798;10.954;2023-05-07T07:41:01;17.10;42.80
64549;DHT22;49838;51.798;10.954;2023-05-07T07:43:30;17.10;42.70
64549;DHT22;49838;51.798;10.954;2023-05-07T07:45:58;17.10;42.90
64549;DHT22;49838;51.798;10.954;2023-05-07T07:48:25;17.10;43.10
64549;DHT22;49838;51.798;10.954;2023-05-07T07:50:53;17.10;43.30
64549;DHT22;49838;51.798;10.954;2023-05-07T07:53:21;17.00;43.20
64549;DHT22;49838;51.798;10.954;2023-05-07T07:55:55;17.10;43.20
64549;DHT22;49838;51.798;10.954;2023-05-07T07:58:26;17.10;43.20
64549;DHT22;49838;51.798;10.954;2023-05-07T08:00:54;17.10;43.30
64549;DHT22;49838;51.798;10.954;2023-05-07T08:03:22;17.00;43.40
64549;DHT22;49838;51.798;10.954;2023-05-07T08:05:49;17.10;43.20
64549;DHT22;49838;51.798;10.954;2023-05-07T08:08:17;17.00;43.30
64549;DHT22;49838;51.798;10.954;2023-05-07T08:10:44;17.10;43.20
64549;DHT22;49838;51.798;10.954;2023-05-07T08:13:13;17.10;43.30
64549;DHT22;49838;51.798;10.954;2023-05-07T08:15:42;17.00;42.90
64549;DHT22;49838;51.798;10.954;2023-05-07T08:18:11;17.00;43.10
64549;DHT22;49838;51.798;10.954;2023-05-07T08:20:38;17.10;42.80
64549;DHT22;49838;51.798;10.954;2023-05-07T08:23:07;17.20;42.80
64549;DHT22;49838;51.798;10.954;2023-05-07T08:25:43;17.20;43.10
64549;DHT22;49838;51.798;10.954;2023-05-07T08:28:31;17.20;43.10
64549;DHT22;49838;51.798;10.954;2023-05-07T08:31:01;17.10;43.30
64549;DHT22;49838;51.798;10.954;2023-05-07T08:33:29;17.20;43.60
64549;DHT22;49838;51.798;10.954;2023-05-07T08:35:57;17.10;43.50
64549;DHT22;49838;51.798;10.954;2023-05-07T08:38:24;17.10;43.30
64549;DHT22;49838;51.798;10.954;2023-05-07T08:40:51;17.10;43.20
64549;DHT22;49838;51.798;10.954;2023-05-07T08:43:23;17.20;43.10
64549;DHT22;49838;51.798;10.954;2023-05-07T08:45:53;17.20;43.30
64549;DHT22;49838;51.798;10.954;2023-05-07T08:48:25;17.20;43.10
64549;DHT22;49838;51.798;10.954;2023-05-07T08:50:57;17.20;43.00
64549;DHT22;49838;51.798;10.954;2023-05-07T08:53:25;17.30;42.90
64549;DHT22;49838;51.798;10.954;2023-05-07T08:55:53;17.40;42.90
64549;DHT22;49838;51.798;10.954;2023-05-07T09:01:14;17.50;42.80
64549;DHT22;49838;51.798;10.954;2023-05-07T09:03:50;17.60;42.80
64549;DHT22;49838;51.798;10.954;2023-05-07T09:06:20;17.60;42.90
64549;DHT22;49838;51.798;10.954;2023-05-07T09:08:50;17.50;43.00
64549;DHT22;49838;51.798;10.954;2023-05-07T09:11:19;17.60;42.90
64549;DHT22;49838;51.798;10.954;2023-05-07T09:13:50;17.50;43.00
64549;DHT22;49838;51.798;10.954;2023-05-07T09:16:32;17.50;43.10
64549;DHT22;49838;51.798;10.954;2023-05-07T09:19:06;17.40;43.10
64549;DHT22;49838;51.798;10.954;2023-05-07T09:21:40;17.40;43.10
64549;DHT22;49838;51.798;10.954;2023-05-07T09:24:08;17.40;43.20
64549;DHT22;49838;51.798;10.954;2023-05-07T09:26:35;17.60;43.20
64549;DHT22;49838;51.798;10.954;2023-05-07T09:29:05;17.60;42.90
64549;DHT22;49838;51.798;10.954;2023-05-07T09:31:36;17.60;43.10
64549;DHT22;49838;51.798;10.954;2023-05-07T09:34:06;17.70;43.10
64549;DHT22;49838;51.798;10.954;2023-05-07T09:36:34;17.70;43.20
64549;DHT22;49838;51.798;10.954;2023-05-07T09:39:12;17.70;43.20
64549;DHT22;49838;51.798;10.954;2023-05-07T09:41:43;17.70;43.10
64549;DHT22;49838;51.798;10.954;2023-05-07T09:44:20;17.70;42.90
64549;DHT22;49838;51.798;10.954;2023-05-07T09:46:53;17.80;42.70
64549;DHT22;49838;51.798;10.954;2023-05-07T09:49:28;17.90;42.70
64549;DHT22;49838;51.798;10.954;2023-05-07T09:54:43;18.10;42.30
64549;DHT22;49838;51.798;10.954;2023-05-07T09:57:14;18.20;42.50
64549;DHT22;49838;51.798;10.954;2023-05-07T09:59:47;18.20;42.40
64549;DHT22;49838;51.798;10.954;2023-05-07T10:02:16;18.20;42.40
64549;DHT22;49838;51.798;10.954;2023-05-07T10:04:49;18.20;42.50
64549;DHT22;49838;51.798;10.954;2023-05-07T10:07:29;18.20;42.70
64549;DHT22;49838;51.798;10.954;2023-05-07T10:09:59;18.30;42.50
64549;DHT22;49838;51.798;10.954;2023-05-07T10:12:27;18.40;42.30
64549;DHT22;49838;51.798;10.954;2023-05-07T10:15:12;18.50;42.20
64549;DHT22;49838;51.798;10.954;2023-05-07T10:17:47;18.50;42.20
64549;DHT22;49838;51.798;10.954;2023-05-07T10:20:20;18.60;42.20
64549;DHT22;49838;51.798;10.954;2023-05-07T10:22:49;18.50;42.00
64549;DHT22;49838;51.798;10.954;2023-05-07T10:25:20;18.50;42.10
64549;DHT22;49838;51.798;10.954;2023-05-07T10:27:50;18.50;42.00
64549;DHT22;49838;51.798;10.954;2023-05-07T10:30:22;18.50;41.90
64549;DHT22;49838;51.798;10.954;2023-05-07T10:32:56;18.50;42.00
64549;DHT22;49838;51.798;10.954;2023-05-07T10:35:32;18.50;42.10
64549;DHT22;49838;51.798;10.954;2023-05-07T10:38:05;18.50;42.00
64549;DHT22;49838;51.798;10.954;2023-05-07T10:40:33;18.50;42.00
64549;DHT22;49838;51.798;10.954;2023-05-07T10:43:02;18.40;42.00
64549;DHT22;49838;51.798;10.954;2023-05-07T10:45:31;18.50;42.00
64549;DHT22;49838;51.798;10.954;2023-05-07T10:48:05;18.60;42.10
64549;DHT22;49838;51.798;10.954;2023-05-07T10:50:33;18.60;42.00
64549;DHT22;49838;51.798;10.954;2023-05-07T10:58:54;18.80;41.80
64549;DHT22;49838;51.798;10.954;2023-05-07T11:01:50;18.80;41.80
64549;DHT22;49838;51.798;10.954;2023-05-07T11:04:20;18.80;41.80
64549;DHT22;49838;51.798;10.954;2023-05-07T11:10:01;18.80;41.70
64549;DHT22;49838;51.798;10.954;2023-05-07T11:12:51;18.80;41.70
64549;DHT22;49838;51.798;10.954;2023-05-07T11:15:39;18.80;41.60
64549;DHT22;49838;51.798;10.954;2023-05-07T11:18:11;18.70;41.50
64549;DHT22;49838;51.798;10.954;2023-05-07T11:20:51;18.80;41.60
64549;DHT22;49838;51.798;10.954;2023-05-07T11:26:27;19.00;41.70
64549;DHT22;49838;51.798;10.954;2023-05-07T11:28:57;19.10;41.50
64549;DHT22;49838;51.798;10.954;2023-05-07T11:31:26;19.20;41.50
64549;DHT22;49838;51.798;10.954;2023-05-07T11:33:55;19.20;41.30
64549;DHT22;49838;51.798;10.954;2023-05-07T11:36:23;19.20;41.30
64549;DHT22;49838;51.798;10.954;2023-05-07T11:38:52;19.30;41.20
64549;DHT22;49838;51.798;10.954;2023-05-07T11:41:19;19.30;41.20
64549;DHT22;49838;51.798;10.954;2023-05-07T11:43:58;19.30;41.20
64549;DHT22;49838;51.798;10.954;2023-05-07T11:46:26;19.30;41.20
64549;DHT22;49838;51.798;10.954;2023-05-07T11:48:54;19.30;41.20
64549;DHT22;49838;51.798;10.954;2023-05-07T11:51:23;19.30;41.10
64549;DHT22;49838;51.798;10.954;2023-05-07T11:53:52;19.40;41.10
64549;DHT22;49838;51.798;10.954;2023-05-07T11:56:20;19.40;41.10
64549;DHT22;49838;51.798;10.954;2023-05-07T11:58:47;19.40;41.10
64549;DHT22;49838;51.798;10.954;2023-05-07T12:01:18;19.30;41.10
64549;DHT22;49838;51.798;10.954;2023-05-07T12:03:46;19.30;41.20
64549;DHT22;49838;51.798;10.954;2023-05-07T12:06:14;19.30;41.10
64549;DHT22;49838;51.798;10.954;2023-05-07T12:08:43;19.30;41.00
64549;DHT22;49838;51.798;10.954;2023-05-07T12:11:13;19.40;41.10
64549;DHT22;49838;51.798;10.954;2023-05-07T12:13:42;19.50;40.90
64549;DHT22;49838;51.798;10.954;2023-05-07T12:16:09;19.60;40.80
64549;DHT22;49838;51.798;10.954;2023-05-07T12:18:38;19.60;40.80
64549;DHT22;49838;51.798;10.954;2023-05-07T12:21:07;19.50;40.80
64549;DHT22;49838;51.798;10.954;2023-05-07T12:23:34;19.40;40.80
64549;DHT22;49838;51.798;10.954;2023-05-07T12:26:03;19.40;41.00
64549;DHT22;49838;51.798;10.954;2023-05-07T12:28:31;19.30;41.00
64549;DHT22;49838;51.798;10.954;2023-05-07T12:31:02;19.20;40.90
64549;DHT22;49838;51.798;10.954;2023-05-07T12:33:31;19.20;40.90
64549;DHT22;49838;51.798;10.954;2023-05-07T12:36:02;19.20;40.90
64549;DHT22;49838;51.798;10.954;2023-05-07T12:38:35;19.30;41.00
64549;DHT22;49838;51.798;10.954;2023-05-07T12:41:04;19.30;40.90
64549;DHT22;49838;51.798;10.954;2023-05-07T12:43:32;19.30;41.00
64549;DHT22;49838;51.798;10.954;2023-05-07T12:46:00;19.20;41.10
64549;DHT22;49838;51.798;10.954;2023-05-07T12:48:29;19.20;41.30
64549;DHT22;49838;51.798;10.954;2023-05-07T12:50:59;19.20;41.30
64549;DHT22;49838;51.798;10.954;2023-05-07T12:53:28;19.20;41.20
64549;DHT22;49838;51.798;10.954;2023-05-07T12:55:57;19.30;41.00
64549;DHT22;49838;51.798;10.954;2023-05-07T12:58:27;19.30;41.10
64549;DHT22;49838;51.798;10.954;2023-05-07T13:00:56;19.30;41.20
64549;DHT22;49838;51.798;10.954;2023-05-07T13:03:28;19.20;41.10
64549;DHT22;49838;51.798;10.954;2023-05-07T13:08:28;19.20;41.10
64549;DHT22;49838;51.798;10.954;2023-05-07T13:10:57;19.30;41.20
64549;DHT22;49838;51.798;10.954;2023-05-07T13:13:25;19.30;41.10
64549;DHT22;49838;51.798;10.954;2023-05-07T13:15:53;19.40;41.00
64549;DHT22;49838;51.798;10.954;2023-05-07T13:18:20;19.60;40.90
64549;DHT22;49838;51.798;10.954;2023-05-07T13:20:47;19.80;41.10
64549;DHT22;49838;51.798;10.954;2023-05-07T13:23:15;19.80;40.80
64549;DHT22;49838;51.798;10.954;2023-05-07T13:25:43;19.80;40.70
64549;DHT22;49838;51.798;10.954;2023-05-07T13:28:11;19.80;40.90
64549;DHT22;49838;51.798;10.954;2023-05-07T13:30:38;19.70;40.70
64549;DHT22;49838;51.798;10.954;2023-05-07T13:33:06;19.70;40.70
64549;DHT22;49838;51.798;10.954;2023-05-07T13:35:33;19.80;40.70
64549;DHT22;49838;51.798;10.954;2023-05-07T13:38:01;19.70;40.40
64549;DHT22;49838;51.798;10.954;2023-05-07T13:40:28;19.80;40.50
64549;DHT22;49838;51.798;10.954;2023-05-07T13:42:58;19.80;40.60
64549;DHT22;49838;51.798;10.954;2023-05-07T13:45:27;19.60;40.50
64549;DHT22;49838;51.798;10.954;2023-05-07T13:47:56;19.50;40.70
64549;DHT22;49838;51.798;10.954;2023-05-07T13:50:24;19.40;40.80
64549;DHT22;49838;51.798;10.954;2023-05-07T13:52:52;19.40;40.90
64549;DHT22;49838;51.798;10.954;2023-05-07T13:55:20;19.40;40.80
64549;DHT22;49838;51.798;10.954;2023-05-07T13:57:54;19.50;40.90
64549;DHT22;49838;51.798;10.954;2023-05-07T14:00:23;19.60;40.90
64549;DHT22;49838;51.798;10.954;2023-05-07T14:02:50;19.60;40.80
64549;DHT22;49838;51.798;10.954;2023-05-07T14:05:18;19.60;40.90
64549;DHT22;49838;51.798;10.954;2023-05-07T14:07:45;19.70;40.80
64549;DHT22;49838;51.798;10.954;2023-05-07T14:10:14;19.70;40.70
64549;DHT22;49838;51.798;10.954;2023-05-07T14:12:42;19.70;40.60
64549;DHT22;49838;51.798;10.954;2023-05-07T14:15:09;19.70;40.50
64549;DHT22;49838;51.798;10.954;2023-05-07T14:17:38;19.70;41.20
64549;DHT22;49838;51.798;10.954;2023-05-07T14:20:06;19.70;40.70
64549;DHT22;49838;51.798;10.954;2023-05-07T14:22:34;19.70;40.70
64549;DHT22;49838;51.798;10.954;2023-05-07T14:25:04;19.80;40.70
64549;DHT22;49838;51.798;10.954;2023-05-07T14:27:32;19.80;40.60
64549;DHT22;49838;51.798;10.954;2023-05-07T14:29:59;19.70;40.50
64549;DHT22;49838;51.798;10.954;2023-05-07T14:32:27;19.70;40.50
64549;DHT22;49838;51.798;10.954;2023-05-07T14:34:56;19.70;40.50
64549;DHT22;49838;51.798;10.954;2023-05-07T14:37:24;19.80;40.60
64549;DHT22;49838;51.798;10.954;2023-05-07T14:39:52;19.90;40.60
64549;DHT22;49838;51.798;10.954;2023-05-07T14:42:19;19.90;40.40
64549;DHT22;49838;51.798;10.954;2023-05-07T14:44:46;19.90;40.40
64549;DHT22;49838;51.798;10.954;2023-05-07T14:47:14;20.00;40.40
64549;DHT22;49838;51.798;10.954;2023-05-07T14:49:41;20.00;40.40
64549;DHT22;49838;51.798;10.954;2023-05-07T14:52:10;20.10;40.30
64549;DHT22;49838;51.798;10.954;2023-05-07T14:54:37;20.20;40.10
64549;DHT22;49838;51.798;10.954;2023-05-07T14:57:05;20.20;39.90
64549;DHT22;49838;51.798;10.954;2023-05-07T14:59:33;20.20;39.80
64549;DHT22;49838;51.798;10.954;2023-05-07T15:02:01;20.30;39.80
64549;DHT22;49838;51.798;10.954;2023-05-07T15:04:29;20.40;40.00
64549;DHT22;49838;51.798;10.954;2023-05-07T15:06:56;20.40;39.80
64549;DHT22;49838;51.798;10.954;2023-05-07T15:09:25;20.40;39.70
64549;DHT22;49838;51.798;10.954;2023-05-07T15:11:52;20.40;39.70
64549;DHT22;49838;51.798;10.954;2023-05-07T15:14:20;20.40;39.80
64549;DHT22;49838;51.798;10.954;2023-05-07T15:16:48;20.30;39.60
64549;DHT22;49838;51.798;10.954;2023-05-07T15:19:15;20.20;39.60
64549;DHT22;49838;51.798;10.954;2023-05-07T15:21:43;20.10;39.40
64549;DHT22;49838;51.798;10.954;2023-05-07T15:24:10;20.10;39.60
64549;DHT22;49838;51.798;10.954;2023-05-07T15:26:39;20.10;39.60
64549;DHT22;49838;51.798;10.954;2023-05-07T15:29:06;20.10;39.60
64549;DHT22;49838;51.798;10.954;2023-05-07T15:31:36;20.10;39.50
64549;DHT22;49838;51.798;10.954;2023-05-07T15:34:04;20.10;39.50
64549;DHT22;49838;51.798;10.954;2023-05-07T15:36:32;20.10;39.50
64549;DHT22;49838;51.798;10.954;2023-05-07T15:38:59;20.00;39.30
64549;DHT22;49838;51.798;10.954;2023-05-07T15:41:28;20.00;39.40
64549;DHT22;49838;51.798;10.954;2023-05-07T15:43:57;20.00;39.40